createdAt,value
2022-10-22T00:00:00.855Z,6.18
2022-10-22T00:02:28.324Z,3.03
2022-10-22T00:04:57.093Z,4.80
2022-10-22T00:07:24.664Z,3.47
2022-10-22T00:09:52.014Z,5.18
2022-10-22T00:12:19.400Z,4.00
2022-10-22T00:14:46.817Z,4.30
2022-10-22T00:17:14.445Z,6.38
2022-10-22T00:19:41.725Z,3.55
2022-10-22T00:22:10.075Z,5.57
2022-10-22T00:24:37.668Z,6.03
2022-10-22T00:27:05.261Z,3.88
2022-10-22T00:29:32.711Z,6.25
2022-10-22T00:31:59.992Z,8.18
2022-10-22T00:34:27.355Z,3.65
2022-10-22T00:36:54.718Z,4.68
2022-10-22T00:39:23.427Z,7.50
2022-10-22T00:41:51.242Z,7.68
2022-10-22T00:44:56.156Z,3.80
2022-10-22T00:47:23.680Z,9.77
2022-10-22T00:49:51.070Z,6.60
2022-10-22T00:52:18.416Z,8.65
2022-10-22T00:54:45.688Z,8.60
2022-10-22T00:57:13.011Z,8.13
2022-10-22T00:59:40.295Z,11.32
2022-10-22T01:02:07.621Z,4.30
2022-10-22T01:04:34.909Z,4.03
2022-10-22T01:07:02.245Z,4.22
2022-10-22T01:09:46.907Z,2.80
2022-10-22T01:12:17.040Z,3.17
2022-10-22T01:14:50.195Z,6.00
2022-10-22T01:17:25.106Z,3.92
2022-10-22T01:20:24.564Z,8.05
2022-10-22T01:23:21.288Z,3.75
2022-10-22T01:25:54.466Z,2.67
2022-10-22T01:28:42.919Z,6.78
2022-10-22T01:31:10.280Z,4.25
2022-10-22T01:33:37.680Z,2.40
2022-10-22T01:36:05.204Z,4.00
2022-10-22T01:38:32.522Z,5.40
2022-10-22T01:40:59.855Z,6.80
2022-10-22T01:43:27.269Z,3.22
2022-10-22T01:45:57.587Z,4.43
2022-10-22T01:48:35.467Z,6.35
2022-10-22T01:51:26.027Z,4.72
2022-10-22T01:54:00.048Z,4.57
2022-10-22T01:56:51.935Z,5.10
2022-10-22T01:59:37.732Z,3.58
2022-10-22T02:02:16.947Z,5.82
2022-10-22T02:04:58.890Z,3.53
2022-10-22T02:07:28.871Z,4.70
2022-10-22T02:09:56.174Z,6.70
2022-10-22T02:12:23.466Z,6.85
2022-10-22T02:14:50.830Z,3.67
2022-10-22T02:17:20.158Z,2.35
2022-10-22T02:20:22.162Z,3.85
2022-10-22T02:22:49.565Z,5.22
2022-10-22T02:25:16.984Z,7.75
2022-10-22T02:27:46.992Z,3.30
2022-10-22T02:30:18.735Z,3.83
2022-10-22T02:32:46.030Z,2.85
2022-10-22T02:35:15.875Z,3.38
2022-10-22T02:37:43.179Z,6.25
2022-10-22T02:40:10.736Z,4.50
2022-10-22T02:42:38.584Z,1.90
2022-10-22T02:45:06.595Z,7.60
2022-10-22T02:47:33.950Z,5.43
2022-10-22T02:50:01.218Z,3.15
2022-10-22T02:52:28.519Z,4.38
2022-10-22T02:54:55.767Z,5.28
2022-10-22T02:57:23.358Z,5.63
2022-10-22T02:59:50.718Z,3.38
2022-10-22T03:02:18.119Z,4.32
2022-10-22T03:04:45.775Z,2.67
2022-10-22T03:07:13.067Z,6.93
2022-10-22T03:09:40.463Z,4.78
2022-10-22T03:12:08.615Z,2.70
2022-10-22T03:14:36.123Z,3.67
2022-10-22T03:17:03.455Z,3.58
2022-10-22T03:19:30.828Z,4.25
2022-10-22T03:22:02.708Z,6.43
2022-10-22T03:24:41.400Z,3.05
2022-10-22T03:27:08.936Z,3.92
2022-10-22T03:29:37.435Z,4.82
2022-10-22T03:32:04.944Z,5.22
2022-10-22T03:34:32.241Z,2.88
2022-10-22T03:37:00.047Z,2.05
2022-10-22T03:39:28.732Z,5.28
2022-10-22T03:41:56.011Z,4.72
2022-10-22T03:44:23.380Z,5.60
2022-10-22T03:46:50.774Z,3.40
2022-10-22T03:49:18.086Z,2.13
2022-10-22T03:51:45.377Z,1.55
2022-10-22T03:54:12.705Z,6.88
2022-10-22T03:56:39.964Z,4.13
2022-10-22T03:59:07.292Z,3.20
2022-10-22T04:01:34.861Z,3.47
2022-10-22T04:04:02.239Z,1.98
2022-10-22T04:06:29.835Z,4.25
2022-10-22T04:08:57.276Z,2.88
2022-10-22T04:11:24.612Z,3.28
2022-10-22T04:13:51.869Z,2.30
2022-10-22T04:16:20.467Z,5.40
2022-10-22T04:18:48.574Z,1.65
2022-10-22T04:21:18.065Z,3.17
2022-10-22T04:23:52.135Z,3.35
2022-10-22T04:26:19.878Z,3.33
2022-10-22T04:28:47.842Z,3.15
2022-10-22T04:31:19.602Z,4.35
2022-10-22T04:33:47.115Z,4.20
2022-10-22T04:36:16.362Z,1.85
2022-10-22T04:38:44.157Z,3.42
2022-10-22T04:41:13.159Z,2.08
2022-10-22T04:43:40.657Z,1.95
2022-10-22T04:46:09.251Z,2.70
2022-10-22T04:48:37.105Z,2.45
2022-10-22T04:51:05.233Z,1.80
2022-10-22T04:53:33.393Z,4.20
2022-10-22T04:56:11.422Z,1.75
2022-10-22T04:58:38.975Z,1.25
2022-10-22T05:01:14.265Z,0.80
2022-10-22T05:03:41.938Z,3.83
2022-10-22T05:06:09.331Z,2.65
2022-10-22T05:08:36.911Z,3.72
2022-10-22T05:11:17.732Z,2.03
2022-10-22T05:13:45.314Z,2.78
2022-10-22T05:16:13.083Z,5.10
2022-10-22T05:18:41.758Z,1.52
2022-10-22T05:21:10.496Z,6.13
2022-10-22T05:23:37.959Z,1.08
2022-10-22T05:26:06.122Z,1.65
2022-10-22T05:28:33.775Z,5.28
2022-10-22T05:31:01.751Z,0.63
2022-10-22T05:33:29.562Z,0.55
2022-10-22T05:35:57.009Z,0.50
2022-10-22T05:38:24.523Z,1.58
2022-10-22T05:41:10.715Z,0.88
2022-10-22T05:43:38.081Z,0.77
2022-10-22T05:46:10.155Z,1.30
2022-10-22T05:48:37.771Z,1.40
2022-10-22T05:51:06.376Z,1.23
2022-10-22T05:53:34.512Z,2.13
2022-10-22T05:56:02.837Z,1.92
2022-10-22T05:58:30.211Z,2.30
2022-10-22T06:01:08.835Z,0.80
2022-10-22T06:03:36.225Z,0.88
2022-10-22T06:06:07.887Z,1.77
2022-10-22T06:08:35.241Z,2.03
2022-10-22T06:11:02.590Z,2.15
2022-10-22T06:13:29.882Z,0.50
2022-10-22T06:15:57.281Z,0.73
2022-10-22T06:18:24.567Z,0.77
2022-10-22T06:20:51.915Z,2.15
2022-10-22T06:23:19.359Z,2.42
2022-10-22T06:25:56.523Z,2.40
2022-10-22T06:30:58.117Z,6.53
2022-10-22T06:33:26.259Z,3.70
2022-10-22T06:35:53.650Z,0.50
2022-10-22T06:38:21.010Z,0.70
2022-10-22T06:40:48.401Z,1.55
2022-10-22T06:43:15.750Z,1.70
2022-10-22T06:45:43.074Z,0.88
2022-10-22T06:48:10.409Z,0.73
2022-10-22T06:50:37.704Z,2.30
2022-10-22T06:53:05.078Z,2.90
2022-10-22T06:55:32.347Z,6.97
2022-10-22T06:57:59.655Z,1.35
2022-10-22T07:00:27.103Z,3.10
2022-10-22T07:02:57.795Z,4.22
2022-10-22T07:05:26.591Z,4.18
2022-10-22T07:07:53.891Z,3.60
2022-10-22T07:10:21.263Z,0.82
2022-10-22T07:12:48.518Z,2.17
2022-10-22T07:15:15.864Z,2.65
2022-10-22T07:17:43.106Z,0.93
2022-10-22T07:20:10.880Z,2.83
2022-10-22T07:22:38.479Z,2.20
2022-10-22T07:25:07.325Z,0.57
2022-10-22T07:27:34.827Z,0.88
2022-10-22T07:30:02.206Z,4.13
2022-10-22T07:32:29.480Z,9.15
2022-10-22T07:34:56.770Z,1.20
2022-10-22T07:37:24.168Z,0.60
2022-10-22T07:39:51.500Z,4.60
2022-10-22T07:42:18.831Z,0.88
2022-10-22T07:44:46.239Z,2.45
2022-10-22T07:47:13.543Z,1.58
2022-10-22T07:49:40.834Z,5.15
2022-10-22T07:52:08.204Z,4.30
2022-10-22T07:54:35.530Z,1.98
2022-10-22T07:57:02.859Z,2.83
2022-10-22T07:59:30.287Z,1.45
2022-10-22T08:01:57.566Z,3.92
2022-10-22T08:04:24.882Z,1.40
2022-10-22T08:06:52.154Z,4.63
2022-10-22T08:09:19.528Z,1.42
2022-10-22T08:11:47.029Z,0.95
2022-10-22T08:14:14.473Z,9.75
2022-10-22T08:16:41.862Z,2.72
2022-10-22T08:19:09.227Z,1.67
2022-10-22T08:21:36.568Z,1.60
2022-10-22T08:24:04.056Z,0.65
2022-10-22T08:26:31.446Z,1.17
2022-10-22T08:28:58.742Z,5.18
2022-10-22T08:31:26.035Z,2.17
2022-10-22T08:33:53.376Z,2.35
2022-10-22T08:36:20.634Z,1.10
2022-10-22T08:38:47.947Z,1.92
2022-10-22T08:41:19.811Z,3.15
2022-10-22T08:44:12.233Z,5.45
2022-10-22T08:46:47.636Z,1.92
2022-10-22T08:49:23.231Z,3.38
2022-10-22T08:51:50.539Z,3.83
2022-10-22T08:54:28.867Z,2.85
2022-10-22T08:57:08.860Z,3.30
2022-10-22T08:59:38.634Z,3.80
2022-10-22T09:02:14.663Z,2.58
2022-10-22T09:04:45.515Z,2.30
2022-10-22T09:07:12.856Z,1.95
2022-10-22T09:09:42.620Z,2.17
2022-10-22T09:12:19.423Z,3.15
2022-10-22T09:14:47.846Z,0.98
2022-10-22T09:17:52.933Z,1.90
2022-10-22T09:20:30.505Z,3.08
2022-10-22T09:23:16.290Z,1.23
2022-10-22T09:25:44.895Z,3.88
2022-10-22T09:28:12.225Z,3.10
2022-10-22T09:30:40.227Z,4.90
2022-10-22T09:33:07.529Z,4.35
2022-10-22T09:35:44.387Z,3.85
2022-10-22T09:38:12.474Z,4.38
2022-10-22T09:40:44.253Z,2.40
2022-10-22T09:43:12.865Z,1.58
2022-10-22T09:45:41.025Z,2.45
2022-10-22T09:48:14.968Z,2.13
2022-10-22T09:53:20.774Z,2.35
2022-10-22T09:58:28.595Z,2.08
2022-10-22T10:01:00.540Z,1.45
2022-10-22T10:03:29.618Z,1.15
2022-10-22T10:06:01.629Z,1.05
2022-10-22T10:08:32.613Z,1.05
2022-10-22T10:11:06.733Z,1.35
2022-10-22T10:13:57.614Z,1.00
2022-10-22T10:16:43.383Z,1.13
2022-10-22T10:19:38.562Z,3.22
2022-10-22T10:22:14.563Z,2.00
2022-10-22T10:24:58.806Z,1.65
2022-10-22T10:27:55.315Z,2.28
2022-10-22T10:30:25.760Z,1.40
2022-10-22T10:32:58.956Z,2.53
2022-10-22T10:35:55.064Z,2.50
2022-10-22T10:38:33.309Z,1.13
2022-10-22T10:41:03.630Z,1.00
2022-10-22T10:44:07.904Z,2.20
2022-10-22T10:46:59.803Z,3.80
2022-10-22T10:49:27.468Z,3.80
2022-10-22T10:52:14.407Z,1.52
2022-10-22T10:55:10.780Z,1.45
2022-10-22T10:57:41.263Z,1.65
2022-10-22T11:00:16.639Z,2.20
2022-10-22T11:03:15.336Z,3.20
2022-10-22T11:05:50.761Z,1.33
2022-10-22T11:08:18.129Z,3.15
2022-10-22T11:11:06.731Z,2.83
2022-10-22T11:13:39.439Z,1.88
2022-10-22T11:16:19.653Z,2.78
2022-10-22T11:18:52.889Z,6.00
2022-10-22T11:21:28.332Z,4.53
2022-10-22T11:24:25.764Z,1.95
2022-10-22T11:26:54.421Z,1.25
2022-10-22T11:29:28.218Z,4.75
2022-10-22T11:31:57.964Z,2.75
2022-10-22T11:34:34.434Z,1.42
2022-10-22T11:37:03.175Z,2.85
2022-10-22T11:39:35.228Z,3.72
2022-10-22T11:42:05.235Z,7.03
2022-10-22T11:44:35.276Z,3.92
2022-10-22T11:47:25.966Z,2.50
2022-10-22T11:49:57.995Z,2.75
2022-10-22T11:52:28.272Z,2.22
2022-10-22T11:54:57.765Z,1.63
2022-10-22T11:57:38.599Z,1.55
2022-10-22T12:00:39.820Z,1.58
2022-10-22T12:03:32.511Z,2.42
2022-10-22T12:06:12.839Z,3.58
2022-10-22T12:08:49.517Z,2.95
2022-10-22T12:11:19.857Z,2.38
2022-10-22T12:13:59.210Z,0.60
2022-10-22T12:17:02.762Z,0.50
2022-10-22T12:19:38.619Z,1.00
2022-10-22T12:22:20.998Z,0.75
2022-10-22T12:24:49.800Z,1.10
2022-10-22T12:27:22.769Z,2.30
2022-10-22T12:29:57.367Z,1.88
2022-10-22T12:32:34.999Z,0.75
2022-10-22T12:35:07.088Z,1.55
2022-10-22T12:37:36.660Z,2.22
2022-10-22T12:40:27.807Z,1.60
2022-10-22T12:43:03.024Z,1.33
2022-10-22T12:45:31.984Z,3.67
2022-10-22T12:48:03.590Z,1.75
2022-10-22T12:50:38.276Z,2.80
2022-10-22T12:53:37.635Z,0.70
2022-10-22T12:56:11.361Z,1.85
2022-10-22T12:58:42.836Z,2.08
2022-10-22T13:01:14.394Z,1.25
2022-10-22T13:03:44.688Z,3.63
2022-10-22T13:06:20.936Z,1.70
2022-10-22T13:09:00.113Z,2.58
2022-10-22T13:11:34.873Z,2.08
2022-10-22T13:16:33.294Z,3.60
2022-10-22T13:19:00.814Z,13.90
2022-10-22T13:21:32.719Z,7.60
2022-10-22T13:24:02.149Z,10.90
2022-10-22T13:26:34.350Z,7.53
2022-10-22T13:29:01.690Z,2.28
2022-10-22T13:31:32.166Z,6.40
2022-10-22T13:34:09.944Z,7.95
2022-10-22T13:36:39.203Z,5.63
2022-10-22T13:39:08.081Z,5.63
2022-10-22T13:44:10.724Z,4.03
2022-10-22T13:46:42.483Z,2.75
2022-10-22T13:49:15.532Z,2.72
2022-10-22T13:51:42.887Z,3.65
2022-10-22T13:54:18.176Z,1.60
2022-10-22T13:56:45.623Z,2.08
2022-10-22T13:59:12.892Z,5.70
2022-10-22T14:01:40.335Z,2.88
2022-10-22T14:04:08.175Z,4.18
2022-10-22T14:09:08.809Z,2.90
2022-10-22T14:11:36.340Z,4.47
2022-10-22T14:14:05.016Z,1.98
2022-10-22T14:16:33.276Z,2.83
2022-10-22T14:19:00.980Z,4.78
2022-10-22T14:21:30.438Z,4.40
2022-10-22T14:23:57.725Z,5.65
2022-10-22T14:26:31.379Z,2.90
2022-10-22T14:29:09.131Z,6.13
2022-10-22T14:34:15.262Z,2.55
2022-10-22T14:36:44.056Z,2.90
2022-10-22T14:39:12.728Z,3.22
2022-10-22T14:41:40.937Z,5.90
2022-10-22T14:44:12.650Z,1.60
2022-10-22T14:46:42.612Z,3.83
2022-10-22T14:49:10.039Z,3.33
2022-10-22T14:51:37.334Z,2.55
2022-10-22T14:54:04.767Z,2.47
2022-10-22T14:56:32.165Z,4.18
2022-10-22T14:58:59.545Z,2.17
2022-10-22T15:01:26.839Z,1.98
2022-10-22T15:03:54.240Z,4.53
2022-10-22T15:06:21.546Z,3.83
2022-10-22T15:08:48.914Z,3.47
2022-10-22T15:11:16.278Z,5.80
2022-10-22T15:13:43.680Z,5.25
2022-10-22T15:16:11.312Z,4.75
2022-10-22T15:18:38.733Z,5.47
2022-10-22T15:21:07.909Z,5.32
2022-10-22T15:23:36.371Z,5.15
2022-10-22T15:26:03.687Z,5.20
2022-10-22T15:28:30.983Z,5.80
2022-10-22T15:30:59.219Z,4.78
2022-10-22T15:33:27.111Z,5.78
2022-10-22T15:35:55.382Z,3.90
2022-10-22T15:41:04.587Z,17.25
2022-10-22T15:43:33.979Z,7.65
2022-10-22T15:46:15.380Z,6.25
2022-10-22T15:48:42.730Z,8.25
2022-10-22T15:51:19.346Z,7.68
2022-10-22T15:53:54.432Z,5.15
2022-10-22T15:56:22.030Z,15.10
2022-10-22T15:58:53.395Z,9.35
2022-10-22T16:01:20.765Z,7.72
2022-10-22T16:03:48.199Z,8.98
2022-10-22T16:06:15.553Z,7.78
2022-10-22T16:08:42.894Z,7.10
2022-10-22T16:11:10.294Z,3.38
2022-10-22T16:13:37.879Z,6.40
2022-10-22T16:16:07.384Z,4.03
2022-10-22T16:18:34.743Z,3.55
2022-10-22T16:21:02.028Z,5.45
2022-10-22T16:23:29.410Z,11.15
2022-10-22T16:25:56.672Z,6.00
2022-10-22T16:28:24.154Z,10.82
2022-10-22T16:30:51.514Z,5.75
2022-10-22T16:33:19.075Z,7.60
2022-10-22T16:35:47.600Z,12.07
2022-10-22T16:38:14.972Z,6.13
2022-10-22T16:40:42.286Z,4.07
2022-10-22T16:43:09.646Z,6.38
2022-10-22T16:45:36.969Z,7.28
2022-10-22T16:48:04.520Z,5.00
2022-10-22T16:50:31.790Z,11.18
2022-10-22T16:52:59.100Z,9.57
2022-10-22T16:55:26.395Z,13.02
2022-10-22T16:57:53.811Z,5.57
2022-10-22T17:00:21.354Z,8.88
2022-10-22T17:02:53.202Z,9.50
2022-10-22T17:05:20.890Z,9.88
2022-10-22T17:07:48.531Z,7.72
2022-10-22T17:10:16.689Z,5.72
2022-10-22T17:12:44.294Z,9.48
2022-10-22T17:15:11.741Z,6.95
2022-10-22T17:17:39.269Z,10.52
2022-10-22T17:20:06.990Z,9.10
2022-10-22T17:22:34.259Z,8.07
2022-10-22T17:25:14.225Z,6.05
2022-10-22T17:27:42.804Z,6.53
2022-10-22T17:30:23.323Z,12.00
2022-10-22T17:32:54.198Z,10.88
2022-10-22T17:35:21.607Z,9.00
2022-10-22T17:37:49.035Z,13.98
2022-10-22T17:40:16.452Z,10.85
2022-10-22T17:42:45.422Z,14.40
2022-10-22T17:45:12.737Z,12.23
2022-10-22T17:47:40.321Z,14.48
2022-10-22T17:50:14.722Z,10.25
2022-10-22T17:52:42.873Z,12.23
2022-10-22T17:55:13.545Z,15.80
2022-10-22T17:57:40.882Z,12.60
2022-10-22T18:00:08.874Z,16.00
2022-10-22T18:02:36.311Z,16.02
2022-10-22T18:05:03.702Z,14.57
2022-10-22T18:07:31.029Z,18.02
2022-10-22T18:09:58.319Z,17.75
2022-10-22T18:12:25.689Z,25.45
2022-10-22T18:14:53.003Z,21.17
2022-10-22T18:17:20.308Z,23.63
2022-10-22T18:19:49.390Z,22.15
2022-10-22T18:22:16.687Z,23.40
2022-10-22T18:24:43.966Z,20.48
2022-10-22T18:27:11.258Z,24.60
2022-10-22T18:29:38.582Z,22.80
2022-10-22T18:32:12.092Z,21.35
2022-10-22T18:37:16.088Z,23.58
2022-10-22T18:39:43.399Z,26.88
2022-10-22T18:42:10.807Z,17.58
2022-10-22T18:44:38.098Z,19.73
2022-10-22T18:47:06.211Z,21.42
2022-10-22T18:49:33.515Z,19.63
2022-10-22T18:52:01.120Z,19.35
2022-10-22T18:54:28.398Z,20.50
2022-10-22T18:57:01.970Z,19.42
2022-10-22T18:59:30.645Z,19.58
2022-10-22T19:01:59.562Z,21.55
2022-10-22T19:04:33.014Z,20.13
2022-10-22T19:07:00.397Z,18.65
2022-10-22T19:09:27.759Z,19.33
2022-10-22T19:11:55.029Z,24.08
2022-10-22T19:14:22.413Z,25.27
2022-10-22T19:16:49.884Z,19.42
2022-10-22T19:19:19.369Z,16.23
2022-10-22T19:21:47.055Z,19.35
2022-10-22T19:24:15.351Z,17.52
2022-10-22T19:26:42.632Z,20.27
2022-10-22T19:29:11.017Z,18.85
2022-10-22T19:31:38.470Z,20.00
2022-10-22T19:34:05.759Z,22.05
2022-10-22T19:36:34.401Z,19.77
2022-10-22T19:39:02.168Z,20.27
2022-10-22T19:41:30.195Z,20.65
2022-10-22T19:43:57.848Z,19.13
2022-10-22T19:46:25.770Z,20.80
2022-10-22T19:48:54.100Z,17.05
2022-10-22T19:51:22.935Z,19.55
2022-10-22T19:53:50.258Z,22.38
2022-10-22T19:56:19.880Z,16.13
2022-10-22T19:58:47.213Z,21.55
2022-10-22T20:01:16.088Z,31.60
2022-10-22T20:03:43.606Z,18.88
2022-10-22T20:06:11.637Z,19.52
2022-10-22T20:08:39.359Z,24.20
2022-10-22T20:11:12.378Z,21.75
2022-10-22T20:16:14.482Z,20.88
2022-10-22T20:18:41.754Z,19.10
2022-10-22T20:21:13.878Z,16.23
2022-10-22T20:23:41.632Z,33.95
2022-10-22T20:26:09.023Z,19.48
2022-10-22T20:28:36.951Z,17.65
2022-10-22T20:31:12.000Z,13.70
2022-10-22T20:33:39.266Z,11.63
2022-10-22T20:36:08.691Z,11.55
2022-10-22T20:41:06.091Z,19.08
2022-10-22T20:43:33.502Z,12.95
2022-10-22T20:46:00.949Z,11.55
2022-10-22T20:48:31.166Z,15.02
2022-10-22T20:50:59.036Z,13.38
2022-10-22T20:53:26.667Z,14.75
2022-10-22T20:55:56.760Z,25.17
2022-10-22T21:01:21.806Z,11.98
2022-10-22T21:03:51.455Z,10.48
2022-10-22T21:06:30.435Z,10.90
2022-10-22T21:08:57.855Z,10.20
2022-10-22T21:11:25.354Z,16.90
2022-10-22T21:13:52.699Z,13.93
2022-10-22T21:16:20.064Z,11.90
2022-10-22T21:18:47.534Z,8.63
2022-10-22T21:21:17.050Z,10.93
2022-10-22T21:23:44.494Z,11.82
2022-10-22T21:26:11.904Z,8.93
2022-10-22T21:28:39.298Z,8.85
2022-10-22T21:31:07.962Z,10.82
2022-10-22T21:33:38.919Z,9.73
2022-10-22T21:36:06.928Z,13.65
2022-10-22T21:38:34.489Z,7.13
2022-10-22T21:41:09.176Z,8.82
2022-10-22T21:43:40.263Z,8.18
2022-10-22T21:46:15.654Z,7.75
2022-10-22T21:48:43.131Z,8.35
2022-10-22T21:51:12.362Z,7.22
2022-10-22T21:53:39.958Z,9.73
2022-10-22T21:56:07.822Z,7.15
2022-10-22T21:58:35.692Z,6.82
2022-10-22T22:01:03.464Z,12.13
2022-10-22T22:03:30.855Z,6.97
2022-10-22T22:05:59.300Z,6.88
2022-10-22T22:08:26.651Z,6.93
2022-10-22T22:10:59.783Z,8.38
2022-10-22T22:13:27.107Z,4.85
2022-10-22T22:15:54.355Z,7.18
2022-10-22T22:18:21.648Z,7.63
2022-10-22T22:20:48.935Z,11.63
2022-10-22T22:23:16.209Z,10.18
2022-10-22T22:25:43.531Z,9.82
2022-10-22T22:28:10.837Z,11.95
2022-10-22T22:30:38.115Z,10.32
2022-10-22T22:33:05.411Z,8.35
2022-10-22T22:35:34.566Z,14.07
2022-10-22T22:38:02.043Z,7.80
2022-10-22T22:40:31.514Z,7.35
2022-10-22T22:43:01.015Z,8.25
2022-10-22T22:45:28.310Z,7.35
2022-10-22T22:47:55.591Z,8.57
2022-10-22T22:50:22.902Z,8.35
2022-10-22T22:52:50.187Z,8.00
2022-10-22T22:55:17.574Z,10.55
2022-10-22T22:57:44.883Z,7.57
2022-10-22T23:00:13.039Z,9.82
2022-10-22T23:02:40.645Z,7.53
2022-10-22T23:05:08.441Z,5.13
2022-10-22T23:07:35.714Z,5.68
2022-10-22T23:10:03.112Z,5.90
2022-10-22T23:12:30.415Z,8.23
2022-10-22T23:15:02.000Z,7.18
2022-10-22T23:17:29.375Z,5.38
2022-10-22T23:19:56.686Z,4.40
2022-10-22T23:22:24.011Z,7.10
2022-10-22T23:24:51.335Z,5.55
2022-10-22T23:27:18.603Z,5.82
2022-10-22T23:29:45.874Z,5.88
2022-10-22T23:32:14.381Z,4.28
2022-10-22T23:34:41.691Z,6.70
2022-10-22T23:37:10.827Z,5.10
2022-10-22T23:39:38.182Z,7.15
2022-10-22T23:42:05.518Z,4.22
2022-10-22T23:44:32.790Z,6.00
2022-10-22T23:47:00.119Z,5.28
2022-10-22T23:49:27.483Z,5.18
2022-10-22T23:51:54.756Z,4.30
2022-10-22T23:54:22.031Z,5.70
2022-10-22T23:56:49.328Z,7.82
2022-10-22T23:59:16.678Z,7.15
